Time;durP1;ratioP1;P1;durP2;ratioP2;P2;SDS_P1;SDS_P2;PMS_P1;PMS_P2;Temp;Humidity;BMP_temperature;BMP_pressure;BME280_temperature;BME280_humidity;BME280_pressure;Samples;Min_cycle;Max_cycle;Signal;HPM_P1;HPM_P2
2021/12/09 00:01:09;;;;;;;11.77;5.20;;;1.00;99.90;;;;;;5011266;28;21079;-65
2021/12/09 00:03:40;;;;;;;9.10;3.47;;;1.00;99.90;;;;;;5009287;28;20791;-65
2021/12/09 00:06:07;;;;;;;8.53;3.90;;;1.10;99.90;;;;;;5010260;28;20443;-65
2021/12/09 00:08:34;;;;;;;10.60;4.80;;;1.10;99.90;;;;;;5004207;28;20453;-65
2021/12/09 00:11:02;;;;;;;9.17;4.00;;;1.00;99.90;;;;;;5003747;28;21066;-65
2021/12/09 00:13:28;;;;;;;10.13;4.97;;;0.90;99.90;;;;;;5005272;28;20426;-65
2021/12/09 00:15:55;;;;;;;10.37;4.33;;;0.90;99.90;;;;;;5006160;28;20425;-65
2021/12/09 00:18:21;;;;;;;11.23;4.20;;;0.90;99.90;;;;;;5007434;28;20469;-65
2021/12/09 00:20:47;;;;;;;10.43;4.70;;;0.90;99.90;;;;;;5008751;28;20433;-65
2021/12/09 00:23:13;;;;;;;14.27;5.33;;;0.90;99.90;;;;;;5006252;28;20466;-65
2021/12/09 00:25:39;;;;;;;15.03;5.07;;;1.00;99.90;;;;;;5007522;28;20702;-65
2021/12/09 00:28:05;;;;;;;6.70;3.40;;;1.00;99.90;;;;;;5006383;28;20422;-64
2021/12/09 00:30:32;;;;;;;14.50;4.00;;;1.00;99.90;;;;;;5007569;28;20215;-64
2021/12/09 00:33:00;;;;;;;12.53;5.10;;;1.00;99.90;;;;;;5001655;28;20426;-65
2021/12/09 00:35:32;;;;;;;9.90;4.70;;;0.90;99.90;;;;;;5000648;28;20429;-65
2021/12/09 00:38:04;;;;;;;14.60;5.10;;;1.00;99.90;;;;;;4996610;28;20432;-65
2021/12/09 00:40:29;;;;;;;11.30;5.03;;;1.00;99.90;;;;;;5004073;28;20426;-65
2021/12/09 00:42:55;;;;;;;9.47;4.17;;;1.00;99.90;;;;;;4995171;28;20522;-65
2021/12/09 00:45:21;;;;;;;9.13;4.80;;;1.00;99.90;;;;;;5002989;28;20195;-65
2021/12/09 00:47:48;;;;;;;9.43;5.03;;;1.00;99.90;;;;;;4999390;28;20267;-65
2021/12/09 00:50:14;;;;;;;11.80;5.70;;;1.00;99.90;;;;;;5003103;28;20953;-65
2021/12/09 00:52:40;;;;;;;11.03;5.90;;;1.00;99.90;;;;;;5010094;28;20465;-65
2021/12/09 00:55:08;;;;;;;11.27;4.40;;;1.00;99.90;;;;;;5008743;28;20508;-65
2021/12/09 00:57:35;;;;;;;9.80;5.40;;;1.00;99.90;;;;;;5009584;28;20457;-65
2021/12/09 01:00:07;;;;;;;6.30;3.60;;;1.00;99.90;;;;;;5001557;28;21220;-65
2021/12/09 01:02:33;;;;;;;12.63;4.20;;;1.10;99.90;;;;;;5008168;28;20563;-64
2021/12/09 01:04:58;;;;;;;7.43;3.83;;;1.10;99.90;;;;;;5000241;28;20430;-64
2021/12/09 01:07:24;;;;;;;7.43;3.80;;;1.10;99.90;;;;;;5007295;28;20270;-64
2021/12/09 01:09:50;;;;;;;7.87;5.10;;;1.10;99.90;;;;;;5001125;28;20215;-64
2021/12/09 01:12:15;;;;;;;5.53;3.50;;;1.10;99.90;;;;;;5007014;28;20284;-64
2021/12/09 01:14:41;;;;;;;6.10;3.20;;;1.10;99.90;;;;;;4998997;28;20188;-64
2021/12/09 01:17:09;;;;;;;12.40;5.40;;;1.20;99.90;;;;;;5004776;28;20187;-64
2021/12/09 01:19:36;;;;;;;10.40;3.97;;;1.10;99.90;;;;;;4994155;28;20434;-64
2021/12/09 01:22:03;;;;;;;9.77;4.20;;;1.10;99.90;;;;;;5004592;28;20844;-64
2021/12/09 01:24:29;;;;;;;6.60;3.27;;;1.10;99.90;;;;;;5001978;28;20510;-64
2021/12/09 01:26:57;;;;;;;4.10;2.40;;;1.10;99.90;;;;;;5003125;28;20438;-64
2021/12/09 01:29:31;;;;;;;9.20;4.27;;;1.10;99.90;;;;;;5001398;28;20191;-64
2021/12/09 01:32:01;;;;;;;6.63;3.50;;;1.10;99.90;;;;;;5002262;28;20426;-64
2021/12/09 01:34:27;;;;;;;8.80;4.13;;;1.10;99.90;;;;;;4997220;28;20595;-64
2021/12/09 01:36:53;;;;;;;13.43;4.70;;;1.10;99.90;;;;;;5000767;28;20429;-64
2021/12/09 01:39:20;;;;;;;8.43;4.20;;;1.10;99.90;;;;;;4999252;28;20199;-65
2021/12/09 01:41:46;;;;;;;11.53;4.47;;;1.10;99.90;;;;;;5002184;28;20469;-65
2021/12/09 01:44:12;;;;;;;10.20;4.57;;;1.10;99.90;;;;;;4998003;28;20911;-64
2021/12/09 01:46:37;;;;;;;9.00;4.70;;;1.10;99.90;;;;;;5000639;28;20588;-64
2021/12/09 01:49:04;;;;;;;9.67;4.60;;;1.10;99.90;;;;;;5002837;28;20190;-64
2021/12/09 01:51:29;;;;;;;10.77;5.60;;;1.10;99.90;;;;;;5005222;28;20196;-65
2021/12/09 01:53:55;;;;;;;11.50;5.00;;;1.10;99.90;;;;;;5000228;28;20480;-65
2021/12/09 01:56:24;;;;;;;7.90;4.80;;;1.10;99.90;;;;;;5008081;28;20184;-65
2021/12/09 01:59:02;;;;;;;10.20;5.00;;;1.10;99.90;;;;;;5007289;28;20559;-65
2021/12/09 02:01:29;;;;;;;11.70;5.20;;;1.10;99.90;;;;;;4995208;28;20953;-65
2021/12/09 02:03:56;;;;;;;11.43;4.80;;;1.20;99.90;;;;;;4997649;28;20500;-65
2021/12/09 02:06:24;;;;;;;8.67;4.53;;;1.20;99.90;;;;;;5004021;28;20461;-65
2021/12/09 02:08:49;;;;;;;10.50;4.87;;;1.20;99.90;;;;;;5002811;28;20545;-65
2021/12/09 02:11:15;;;;;;;12.23;4.90;;;1.20;99.90;;;;;;5000029;28;20830;-65
2021/12/09 02:13:42;;;;;;;11.90;5.67;;;1.20;99.90;;;;;;4999947;28;20195;-65
2021/12/09 02:16:09;;;;;;;10.07;4.80;;;1.20;99.90;;;;;;5001305;28;20205;-65
2021/12/09 02:18:34;;;;;;;9.47;5.33;;;1.20;99.90;;;;;;4996498;28;20463;-65
2021/12/09 02:21:09;;;;;;;9.67;5.40;;;1.20;99.90;;;;;;4995510;28;20531;-65
2021/12/09 02:23:36;;;;;;;9.63;5.30;;;1.20;99.90;;;;;;4999777;28;20190;-65
2021/12/09 02:26:02;;;;;;;11.00;5.60;;;1.20;99.90;;;;;;4996639;28;20501;-65
2021/12/09 02:28:28;;;;;;;11.47;4.97;;;1.20;99.90;;;;;;5001235;28;20421;-65
2021/12/09 02:30:54;;;;;;;13.17;5.97;;;1.20;99.90;;;;;;5003271;28;20418;-65
2021/12/09 02:33:19;;;;;;;11.97;5.10;;;1.20;99.90;;;;;;4998348;28;20684;-65
2021/12/09 02:35:45;;;;;;;16.53;5.33;;;1.30;99.90;;;;;;5000687;28;20198;-65
2021/12/09 02:38:11;;;;;;;14.43;6.17;;;1.20;99.90;;;;;;4997727;28;20283;-65
2021/12/09 02:40:37;;;;;;;13.87;5.13;;;1.20;99.90;;;;;;5008606;28;20570;-65
2021/12/09 02:43:05;;;;;;;9.57;4.73;;;1.20;99.90;;;;;;5007925;28;20461;-65
2021/12/09 02:45:31;;;;;;;9.90;5.67;;;1.20;99.90;;;;;;5005095;28;20430;-65
2021/12/09 02:47:56;;;;;;;8.40;4.93;;;1.20;99.90;;;;;;5007658;28;20432;-64
2021/12/09 02:50:22;;;;;;;10.87;5.87;;;1.20;99.90;;;;;;5005672;28;20584;-64
2021/12/09 02:52:49;;;;;;;11.80;5.10;;;1.20;99.90;;;;;;5001435;28;20198;-64
2021/12/09 02:55:15;;;;;;;11.63;5.07;;;1.30;99.90;;;;;;4993526;28;20947;-64
2021/12/09 02:57:41;;;;;;;9.80;5.70;;;1.30;99.90;;;;;;5005836;28;20465;-64
2021/12/09 03:00:10;;;;;;;7.67;4.87;;;1.30;99.90;;;;;;5004375;28;20612;-64
2021/12/09 03:02:36;;;;;;;8.47;4.10;;;1.30;99.90;;;;;;5005258;28;20207;-64
2021/12/09 03:05:04;;;;;;;8.93;3.87;;;1.30;99.90;;;;;;5001142;28;20464;-64
2021/12/09 03:07:36;;;;;;;9.53;5.53;;;1.40;99.90;;;;;;5004996;28;20413;-65
2021/12/09 03:10:24;;;;;;;14.07;4.60;;;1.40;99.90;;;;;;5002312;28;20473;-65
2021/12/09 03:13:00;;;;;;;8.03;4.13;;;1.40;99.90;;;;;;4994649;28;20420;-65
2021/12/09 03:15:25;;;;;;;9.93;4.37;;;1.40;99.90;;;;;;4995682;28;20450;-65
2021/12/09 03:17:51;;;;;;;14.47;4.83;;;1.40;99.90;;;;;;5001509;28;20488;-65
2021/12/09 03:20:19;;;;;;;7.60;4.30;;;1.50;99.90;;;;;;4999664;28;20642;-65
2021/12/09 03:22:47;;;;;;;8.60;4.40;;;1.50;99.90;;;;;;5001414;28;20297;-65
2021/12/09 03:25:16;;;;;;;5.63;2.90;;;1.50;99.90;;;;;;4995324;28;20429;-65
2021/12/09 03:27:41;;;;;;;12.57;4.80;;;1.40;99.90;;;;;;4997151;28;20422;-65
2021/12/09 03:30:10;;;;;;;10.07;4.87;;;1.40;99.90;;;;;;4998568;28;20426;-65
2021/12/09 03:32:36;;;;;;;12.37;3.77;;;1.40;99.90;;;;;;4998988;28;20198;-65
2021/12/09 03:35:02;;;;;;;6.13;3.33;;;1.40;99.90;;;;;;5002854;28;20462;-65
2021/12/09 03:37:28;;;;;;;5.20;3.07;;;1.40;99.90;;;;;;5006063;28;20187;-65
2021/12/09 03:39:55;;;;;;;8.07;3.57;;;1.50;99.90;;;;;;5007167;28;20434;-65
2021/12/09 03:42:26;;;;;;;6.63;3.43;;;1.50;99.90;;;;;;4993665;28;21034;-65
2021/12/09 03:44:52;;;;;;;9.30;4.30;;;1.50;99.90;;;;;;4999586;28;20470;-65
2021/12/09 03:47:20;;;;;;;7.87;3.73;;;1.50;99.90;;;;;;5000901;28;21007;-65
2021/12/09 03:49:46;;;;;;;5.90;3.17;;;1.50;99.90;;;;;;5005482;28;21357;-65
2021/12/09 03:52:13;;;;;;;6.77;3.20;;;1.60;99.90;;;;;;5001360;28;20437;-65
2021/12/09 03:54:40;;;;;;;9.57;4.20;;;1.60;99.90;;;;;;4999517;28;20438;-65
2021/12/09 03:57:07;;;;;;;6.47;3.10;;;1.60;99.90;;;;;;5000238;28;20441;-65
2021/12/09 03:59:34;;;;;;;5.23;3.50;;;1.60;99.90;;;;;;5003777;28;20445;-65
2021/12/09 04:02:00;;;;;;;7.37;3.70;;;1.60;99.90;;;;;;4999263;28;20524;-65
2021/12/09 04:04:26;;;;;;;12.20;3.33;;;1.60;99.90;;;;;;4999133;28;20441;-65
2021/12/09 04:06:52;;;;;;;7.37;3.40;;;1.60;99.90;;;;;;5001825;28;20892;-65
2021/12/09 04:09:19;;;;;;;7.50;2.70;;;1.60;99.90;;;;;;5000433;28;20427;-65
2021/12/09 04:11:45;;;;;;;8.27;3.97;;;1.60;99.90;;;;;;4995295;28;20198;-65
2021/12/09 04:14:13;;;;;;;4.23;2.70;;;1.60;99.90;;;;;;5005052;28;20421;-65
2021/12/09 04:16:39;;;;;;;7.57;2.90;;;1.50;99.90;;;;;;5000459;28;20785;-65
2021/12/09 04:19:07;;;;;;;5.30;2.20;;;1.50;99.90;;;;;;5004185;28;21254;-65
2021/12/09 04:21:33;;;;;;;2.80;1.87;;;1.50;99.90;;;;;;4999858;28;20470;-65
2021/12/09 04:23:59;;;;;;;3.70;2.60;;;1.50;99.90;;;;;;5003384;28;20450;-65
2021/12/09 04:26:25;;;;;;;8.93;3.43;;;1.50;99.90;;;;;;4991887;28;20478;-65
2021/12/09 04:28:50;;;;;;;11.77;2.80;;;1.50;99.90;;;;;;5001814;28;20597;-65
2021/12/09 04:31:17;;;;;;;3.97;2.13;;;1.50;99.90;;;;;;5009872;28;20468;-65
2021/12/09 04:33:43;;;;;;;8.17;2.80;;;1.50;99.90;;;;;;5007547;28;20175;-65
2021/12/09 04:36:10;;;;;;;3.57;2.10;;;1.50;99.90;;;;;;5005941;28;21100;-65
2021/12/09 04:38:36;;;;;;;10.13;2.30;;;1.60;99.90;;;;;;5008435;28;20425;-65
2021/12/09 04:41:02;;;;;;;6.70;1.77;;;1.70;99.90;;;;;;5001574;28;20422;-65
2021/12/09 04:43:27;;;;;;;4.93;2.13;;;1.70;99.90;;;;;;5007711;28;20826;-65
2021/12/09 04:45:53;;;;;;;4.80;2.00;;;1.70;99.90;;;;;;5003191;28;20672;-65
2021/12/09 04:48:19;;;;;;;4.13;2.07;;;1.80;99.90;;;;;;5006128;28;20183;-65
2021/12/09 04:50:45;;;;;;;4.90;2.20;;;1.70;99.90;;;;;;5002749;28;20180;-64
2021/12/09 04:53:11;;;;;;;3.00;1.30;;;1.70;99.90;;;;;;5005591;28;20576;-65
2021/12/09 04:55:37;;;;;;;4.10;1.73;;;1.70;99.90;;;;;;4998424;28;20430;-65
2021/12/09 04:58:07;;;;;;;2.90;1.70;;;1.70;99.90;;;;;;4997599;28;20450;-65
2021/12/09 05:00:37;;;;;;;3.33;1.20;;;1.60;99.90;;;;;;4999389;28;20764;-65
2021/12/09 05:03:07;;;;;;;3.87;1.90;;;1.60;99.90;;;;;;5002554;28;20552;-65
2021/12/09 05:05:38;;;;;;;2.70;1.50;;;1.60;99.90;;;;;;4998821;28;20414;-65
2021/12/09 05:08:05;;;;;;;5.33;1.83;;;1.50;99.90;;;;;;4995151;28;20513;-65
2021/12/09 05:10:36;;;;;;;3.10;1.83;;;1.50;99.90;;;;;;4999719;28;20936;-65
2021/12/09 05:13:04;;;;;;;3.83;1.67;;;1.40;99.90;;;;;;5003056;28;20428;-65
2021/12/09 05:15:30;;;;;;;6.83;1.97;;;1.40;99.90;;;;;;4999401;28;21281;-65
2021/12/09 05:17:55;;;;;;;2.23;1.17;;;1.40;99.90;;;;;;5006900;28;20495;-65
2021/12/09 05:20:22;;;;;;;1.90;1.20;;;1.40;99.90;;;;;;4999967;28;20888;-64
2021/12/09 05:22:48;;;;;;;2.70;1.30;;;1.40;99.90;;;;;;4996553;28;20211;-64
2021/12/09 05:25:13;;;;;;;8.67;2.00;;;1.40;99.90;;;;;;5001184;28;20469;-65
2021/12/09 05:27:39;;;;;;;6.50;1.60;;;1.40;99.90;;;;;;5003326;28;20191;-64
2021/12/09 05:30:11;;;;;;;2.23;1.10;;;1.40;99.90;;;;;;5006851;28;20183;-64
2021/12/09 05:32:37;;;;;;;1.80;1.10;;;1.40;99.90;;;;;;5004175;28;20217;-65
2021/12/09 05:35:03;;;;;;;13.13;1.70;;;1.40;99.90;;;;;;5002568;28;21021;-65
2021/12/09 05:37:29;;;;;;;4.43;1.57;;;1.40;99.90;;;;;;5003654;28;20271;-65
2021/12/09 05:39:56;;;;;;;2.17;1.17;;;1.40;99.90;;;;;;5006017;28;20414;-65
2021/12/09 05:42:23;;;;;;;2.87;1.43;;;1.40;99.90;;;;;;4995564;28;20262;-65
2021/12/09 05:44:49;;;;;;;3.90;2.00;;;1.40;99.90;;;;;;4990700;28;20425;-65
2021/12/09 05:47:15;;;;;;;3.87;1.50;;;1.40;99.90;;;;;;4999379;28;20845;-64
2021/12/09 05:49:44;;;;;;;6.07;2.17;;;1.40;99.90;;;;;;5003801;28;20425;-64
2021/12/09 05:52:12;;;;;;;3.00;1.40;;;1.40;99.90;;;;;;4999711;28;20438;-64
2021/12/09 05:54:38;;;;;;;5.37;1.83;;;1.40;99.90;;;;;;4997697;28;20427;-65
2021/12/09 05:57:04;;;;;;;3.97;1.73;;;1.40;99.90;;;;;;4992506;28;20452;-65
2021/12/09 05:59:29;;;;;;;1.73;0.90;;;1.40;99.90;;;;;;4997893;28;20206;-64
2021/12/09 06:01:57;;;;;;;4.10;1.90;;;1.40;99.90;;;;;;4991235;28;20532;-64
2021/12/09 06:04:22;;;;;;;7.00;2.43;;;1.30;99.90;;;;;;4990952;28;20186;-64
2021/12/09 06:06:48;;;;;;;4.60;1.60;;;1.30;99.90;;;;;;4998448;28;20422;-65
2021/12/09 06:09:14;;;;;;;10.50;2.53;;;1.40;99.90;;;;;;4993572;28;20214;-65
2021/12/09 06:11:41;;;;;;;4.73;2.23;;;1.40;99.90;;;;;;4993373;28;20198;-65
2021/12/09 06:14:08;;;;;;;7.30;2.27;;;1.40;99.90;;;;;;5001796;28;20430;-64
2021/12/09 06:16:34;;;;;;;5.40;2.90;;;1.40;99.90;;;;;;5001208;28;20475;-65
2021/12/09 06:19:01;;;;;;;6.50;3.10;;;1.40;99.90;;;;;;5001840;28;20441;-64
2021/12/09 06:21:28;;;;;;;4.77;2.40;;;1.40;99.90;;;;;;5003958;28;20441;-64
2021/12/09 06:24:02;;;;;;;7.73;3.37;;;1.40;99.90;;;;;;5003039;28;20426;-65
2021/12/09 06:26:29;;;;;;;5.43;3.13;;;1.40;99.90;;;;;;4995514;28;20771;-64
2021/12/09 06:28:56;;;;;;;11.53;3.00;;;1.40;99.90;;;;;;5005669;28;20426;-65
2021/12/09 06:31:22;;;;;;;10.90;3.07;;;1.40;99.90;;;;;;5002190;28;20464;-65
2021/12/09 06:33:48;;;;;;;9.73;3.83;;;1.40;99.90;;;;;;5000852;28;20882;-64
2021/12/09 06:36:14;;;;;;;10.23;3.60;;;1.40;99.90;;;;;;5000415;28;20961;-64
2021/12/09 06:38:40;;;;;;;12.50;4.47;;;1.40;99.90;;;;;;5004029;28;20422;-65
2021/12/09 06:41:08;;;;;;;4.47;2.53;;;1.40;99.90;;;;;;5000345;28;20188;-64
2021/12/09 06:43:37;;;;;;;9.97;2.97;;;1.40;99.90;;;;;;4996062;28;20833;-64
2021/12/09 06:46:05;;;;;;;5.80;2.53;;;1.30;99.90;;;;;;4994548;28;20836;-65
2021/12/09 06:48:31;;;;;;;5.70;2.73;;;1.30;99.90;;;;;;5003174;28;20426;-65
2021/12/09 06:50:57;;;;;;;10.70;2.40;;;1.30;99.90;;;;;;4989676;28;20423;-64
2021/12/09 06:53:23;;;;;;;5.03;2.10;;;1.30;99.90;;;;;;4997554;28;20426;-64
2021/12/09 06:55:48;;;;;;;8.37;2.90;;;1.30;99.90;;;;;;4995752;28;20190;-65
2021/12/09 06:58:14;;;;;;;7.40;2.67;;;1.30;99.90;;;;;;5001965;28;20446;-65
2021/12/09 07:00:45;;;;;;;5.20;2.57;;;1.40;99.90;;;;;;4996182;28;20199;-64
2021/12/09 07:03:11;;;;;;;5.63;2.90;;;1.40;99.90;;;;;;4998985;28;20210;-64
2021/12/09 07:05:37;;;;;;;5.20;2.73;;;1.40;99.90;;;;;;5003609;28;20418;-65
2021/12/09 07:08:04;;;;;;;6.23;2.83;;;1.40;99.90;;;;;;4988885;28;20423;-65
2021/12/09 07:10:31;;;;;;;4.30;2.40;;;1.30;99.90;;;;;;4986674;28;20188;-65
2021/12/09 07:12:56;;;;;;;11.70;4.80;;;1.30;99.90;;;;;;4994227;28;20485;-65
2021/12/09 07:15:22;;;;;;;6.43;3.27;;;1.40;99.90;;;;;;5005327;28;20807;-65
2021/12/09 07:17:48;;;;;;;7.33;2.93;;;1.30;99.90;;;;;;5003541;28;20682;-65
2021/12/09 07:20:19;;;;;;;3.40;1.93;;;1.30;99.90;;;;;;5000675;28;20214;-64
2021/12/09 07:22:46;;;;;;;4.60;2.27;;;1.30;99.90;;;;;;4998972;28;20475;-65
2021/12/09 07:25:12;;;;;;;10.70;2.63;;;1.30;99.90;;;;;;4993579;28;20470;-65
2021/12/09 07:27:38;;;;;;;6.43;3.00;;;1.30;99.90;;;;;;4995909;28;20426;-64
2021/12/09 07:30:06;;;;;;;3.57;2.50;;;1.30;99.90;;;;;;4994759;28;20430;-64
2021/12/09 07:32:32;;;;;;;4.50;2.37;;;1.40;99.90;;;;;;4985907;28;20191;-64
2021/12/09 07:34:58;;;;;;;5.20;2.77;;;1.40;99.90;;;;;;4995263;28;20475;-64
2021/12/09 07:37:24;;;;;;;8.23;2.13;;;1.40;99.90;;;;;;5003631;28;20426;-64
2021/12/09 07:39:49;;;;;;;5.07;1.60;;;1.30;99.90;;;;;;4992205;28;20207;-64
2021/12/09 07:42:17;;;;;;;8.17;3.40;;;1.40;99.90;;;;;;4993764;28;20202;-65
2021/12/09 07:44:43;;;;;;;4.63;2.60;;;1.40;99.90;;;;;;5001106;28;20178;-64
2021/12/09 07:47:08;;;;;;;5.70;2.87;;;1.40;99.90;;;;;;4994644;28;20522;-64
2021/12/09 07:49:34;;;;;;;22.53;3.40;;;1.40;99.90;;;;;;4990835;28;20274;-64
2021/12/09 07:52:00;;;;;;;9.60;2.70;;;1.40;99.90;;;;;;5000481;28;20198;-64
2021/12/09 07:54:26;;;;;;;6.93;2.00;;;1.50;99.90;;;;;;5002715;28;21013;-65
2021/12/09 07:56:51;;;;;;;3.10;1.87;;;1.50;99.90;;;;;;5008254;28;20192;-65
2021/12/09 07:59:17;;;;;;;6.90;2.50;;;1.50;99.90;;;;;;5002785;28;20206;-65
2021/12/09 08:01:44;;;;;;;4.80;2.03;;;1.50;99.90;;;;;;4992838;28;20219;-65
2021/12/09 08:04:10;;;;;;;5.93;2.63;;;1.50;99.90;;;;;;4990414;28;20187;-65
2021/12/09 08:06:36;;;;;;;9.93;2.87;;;1.50;99.90;;;;;;4997810;28;21168;-64
2021/12/09 08:09:04;;;;;;;9.30;3.67;;;1.50;99.90;;;;;;4996435;28;20442;-65
2021/12/09 08:11:33;;;;;;;4.40;2.60;;;1.60;99.90;;;;;;4998535;28;20911;-65
2021/12/09 08:13:59;;;;;;;7.23;2.13;;;1.60;99.90;;;;;;4998221;28;20438;-65
2021/12/09 08:16:24;;;;;;;6.20;2.73;;;1.60;99.90;;;;;;4984915;28;20446;-65
2021/12/09 08:18:56;;;;;;;3.70;2.20;;;1.60;99.90;;;;;;4995184;28;20470;-65
2021/12/09 08:21:26;;;;;;;14.53;2.67;;;1.60;99.90;;;;;;4994929;28;20188;-65
2021/12/09 08:23:53;;;;;;;4.00;1.80;;;1.70;99.90;;;;;;4996882;28;20545;-65
2021/12/09 08:26:21;;;;;;;6.60;2.40;;;1.70;99.90;;;;;;4995107;28;21432;-65
2021/12/09 08:28:47;;;;;;;6.53;2.43;;;1.70;99.90;;;;;;5001252;28;20541;-65
2021/12/09 08:31:13;;;;;;;8.03;1.50;;;1.70;99.90;;;;;;4994173;28;20581;-65
2021/12/09 08:33:38;;;;;;;4.30;2.20;;;1.70;99.90;;;;;;4994929;28;20199;-65
2021/12/09 08:36:04;;;;;;;3.63;2.20;;;1.70;99.90;;;;;;4989331;28;20195;-65
2021/12/09 08:38:30;;;;;;;5.10;2.37;;;1.70;99.90;;;;;;4999146;28;20202;-64
2021/12/09 08:40:58;;;;;;;4.23;1.93;;;1.80;99.90;;;;;;4990786;28;20779;-64
2021/12/09 08:43:24;;;;;;;3.60;2.13;;;1.80;99.90;;;;;;4990597;28;21196;-64
2021/12/09 08:45:53;;;;;;;3.00;1.80;;;1.90;99.90;;;;;;4989732;28;20447;-64
2021/12/09 08:48:19;;;;;;;3.53;2.37;;;1.90;99.90;;;;;;4988144;28;20195;-64
2021/12/09 08:50:44;;;;;;;8.37;3.03;;;1.90;99.90;;;;;;4990347;28;20931;-65
2021/12/09 08:53:22;;;;;;;3.63;2.10;;;2.00;99.90;;;;;;4995495;28;20451;-65
2021/12/09 08:55:48;;;;;;;6.83;2.90;;;1.90;99.90;;;;;;5002206;28;20600;-65
2021/12/09 08:58:15;;;;;;;5.53;2.30;;;2.00;99.90;;;;;;4991102;28;20530;-65
2021/12/09 09:00:42;;;;;;;5.77;2.53;;;2.00;99.90;;;;;;4995167;28;20453;-64
2021/12/09 09:03:08;;;;;;;4.50;2.33;;;2.00;99.90;;;;;;5000358;28;20493;-64
2021/12/09 09:05:35;;;;;;;7.93;2.40;;;2.00;99.90;;;;;;5004893;28;20448;-65
2021/12/09 09:08:02;;;;;;;4.00;1.87;;;2.10;99.90;;;;;;4999674;28;20528;-64
2021/12/09 09:10:30;;;;;;;3.77;1.90;;;2.10;99.90;;;;;;4994251;28;20780;-65
2021/12/09 09:12:56;;;;;;;3.73;1.90;;;2.30;99.90;;;;;;4991475;28;20446;-64
2021/12/09 09:15:25;;;;;;;3.87;2.27;;;2.30;99.90;;;;;;4994820;28;20453;-65
2021/12/09 09:17:51;;;;;;;3.73;1.80;;;2.30;99.90;;;;;;5000569;28;20441;-65
2021/12/09 09:20:20;;;;;;;3.13;1.70;;;2.40;99.90;;;;;;4993809;28;22562;-65
2021/12/09 09:22:46;;;;;;;4.57;1.70;;;2.40;99.90;;;;;;5000598;28;20470;-65
2021/12/09 09:25:17;;;;;;;8.70;1.63;;;2.40;99.90;;;;;;4992532;28;20465;-65
2021/12/09 09:27:46;;;;;;;6.83;1.87;;;2.50;99.90;;;;;;4993431;28;20512;-65
2021/12/09 09:30:18;;;;;;;4.93;2.17;;;2.60;99.90;;;;;;4991855;28;20902;-65
2021/12/09 09:32:49;;;;;;;3.30;1.83;;;2.60;99.90;;;;;;4995877;28;20814;-65
2021/12/09 09:35:16;;;;;;;7.60;2.10;;;2.70;99.90;;;;;;4993402;28;20750;-65
2021/12/09 09:37:42;;;;;;;3.40;1.80;;;2.80;99.90;;;;;;4993670;28;20541;-65
2021/12/09 09:40:12;;;;;;;3.57;1.47;;;2.70;99.90;;;;;;4990587;28;21203;-65
2021/12/09 09:45:05;;;;;;;2.77;2.10;;;2.80;99.90;;;;;;4993420;28;20435;-65
2021/12/09 09:47:31;;;;;;;10.20;2.30;;;2.80;99.90;;;;;;4995311;28;20902;-65
2021/12/09 09:49:58;;;;;;;6.90;1.60;;;3.00;99.90;;;;;;4996743;28;20895;-65
2021/12/09 09:52:24;;;;;;;4.67;1.80;;;3.00;99.90;;;;;;5000250;28;21282;-65
2021/12/09 09:54:51;;;;;;;2.97;1.40;;;3.00;99.90;;;;;;5000390;28;20441;-65
2021/12/09 09:57:17;;;;;;;4.57;1.93;;;3.00;99.90;;;;;;4990642;28;21055;-65
2021/12/09 09:59:42;;;;;;;2.93;1.90;;;2.90;99.90;;;;;;4990156;28;20452;-65
2021/12/09 10:02:10;;;;;;;3.07;1.23;;;2.90;99.90;;;;;;4995621;28;20214;-65
2021/12/09 10:07:08;;;;;;;3.87;2.13;;;2.90;99.90;;;;;;4997978;28;20808;-65
2021/12/09 10:09:34;;;;;;;2.23;1.20;;;3.00;99.90;;;;;;4997513;28;20454;-65
2021/12/09 10:12:01;;;;;;;2.77;1.70;;;3.00;99.90;;;;;;4988455;28;20278;-65
2021/12/09 10:14:34;;;;;;;2.93;1.60;;;3.10;99.90;;;;;;4993960;28;20443;-65
2021/12/09 10:17:08;;;;;;;2.93;1.73;;;3.10;99.90;;;;;;4994598;28;20450;-65
2021/12/09 10:19:37;;;;;;;4.10;1.87;;;3.10;99.90;;;;;;4988825;28;20488;-65
2021/12/09 10:22:06;;;;;;;5.03;2.30;;;3.10;99.90;;;;;;4987999;28;20549;-65
2021/12/09 10:24:33;;;;;;;4.43;2.30;;;3.10;99.90;;;;;;4987391;28;20439;-65
2021/12/09 10:26:59;;;;;;;3.00;1.80;;;3.20;99.90;;;;;;4999904;28;20438;-65
2021/12/09 10:29:31;;;;;;;2.60;1.83;;;3.20;99.90;;;;;;4997324;28;20447;-65
2021/12/09 10:32:01;;;;;;;4.53;2.70;;;3.20;99.90;;;;;;4994562;28;20441;-65
2021/12/09 10:34:40;;;;;;;2.33;1.53;;;3.10;99.90;;;;;;4998543;28;20453;-65
2021/12/09 10:37:11;;;;;;;2.70;1.43;;;3.20;99.90;;;;;;4987437;28;20445;-65
2021/12/09 10:40:04;;;;;;;4.00;2.07;;;3.20;99.90;;;;;;4997224;28;20446;-65
2021/12/09 10:42:40;;;;;;;4.60;2.50;;;3.20;99.90;;;;;;4996963;28;20544;-65
2021/12/09 10:45:10;;;;;;;2.57;1.87;;;3.10;99.90;;;;;;4995319;28;20441;-65
2021/12/09 10:50:20;;;;;;;5.50;1.70;;;3.10;99.90;;;;;;4990937;28;20446;-65
2021/12/09 10:52:55;;;;;;;4.07;2.07;;;3.20;99.90;;;;;;4996731;28;20512;-65
2021/12/09 10:55:31;;;;;;;2.50;1.40;;;3.20;99.90;;;;;;4992715;28;20533;-65
2021/12/09 10:58:02;;;;;;;5.93;1.70;;;3.20;99.90;;;;;;4992145;28;20457;-64
2021/12/09 11:00:35;;;;;;;5.40;2.00;;;3.20;99.90;;;;;;4992235;28;20542;-64
2021/12/09 11:03:11;;;;;;;4.07;1.33;;;3.40;99.90;;;;;;4997686;28;20527;-65
2021/12/09 11:05:44;;;;;;;3.33;1.30;;;3.40;99.90;;;;;;4996353;28;20475;-65
2021/12/09 11:08:18;;;;;;;14.33;2.10;;;3.40;99.90;;;;;;4998079;28;20521;-64
2021/12/09 11:10:47;;;;;;;11.23;1.60;;;3.50;99.90;;;;;;4996519;28;20443;-64
2021/12/09 11:13:15;;;;;;;2.53;1.00;;;3.50;99.90;;;;;;4989643;28;20458;-64
2021/12/09 11:15:55;;;;;;;2.70;1.33;;;3.60;99.90;;;;;;4993669;28;20457;-64
2021/12/09 11:18:33;;;;;;;2.17;1.40;;;3.60;99.90;;;;;;4995028;28;21073;-64
2021/12/09 11:21:01;;;;;;;2.07;0.90;;;3.70;99.90;;;;;;4991187;28;20441;-64
2021/12/09 11:23:34;;;;;;;2.20;1.30;;;3.70;99.90;;;;;;4993096;28;21063;-64
2021/12/09 11:26:27;;;;;;;4.93;1.70;;;3.70;99.90;;;;;;4986544;28;21143;-64
2021/12/09 11:29:17;;;;;;;4.70;1.80;;;3.70;99.90;;;;;;5003335;28;20481;-64
2021/12/09 11:31:57;;;;;;;2.40;1.40;;;3.70;99.90;;;;;;4991674;28;20529;-64
2021/12/09 11:34:28;;;;;;;4.10;1.80;;;3.80;99.90;;;;;;4995681;28;20438;-64
2021/12/09 11:37:04;;;;;;;3.77;1.30;;;3.90;99.90;;;;;;4996258;28;20443;-64
2021/12/09 11:39:33;;;;;;;1.93;1.27;;;3.90;99.90;;;;;;5000655;28;20448;-64
2021/12/09 11:42:16;;;;;;;3.00;1.50;;;4.10;99.90;;;;;;4996543;28;20487;-64
2021/12/09 11:44:44;;;;;;;4.57;1.73;;;4.30;99.90;;;;;;4996920;28;20451;-64
2021/12/09 11:47:11;;;;;;;3.87;1.40;;;4.50;99.90;;;;;;4998805;28;20442;-64
2021/12/09 11:49:37;;;;;;;7.53;1.27;;;4.60;99.90;;;;;;5000677;28;20580;-64
2021/12/09 11:52:03;;;;;;;2.57;1.53;;;4.70;99.90;;;;;;4997085;28;20919;-64
2021/12/09 11:54:28;;;;;;;2.00;1.20;;;4.90;99.90;;;;;;4995291;28;20278;-64
2021/12/09 11:57:14;;;;;;;2.10;1.20;;;4.90;99.90;;;;;;4996646;28;20858;-64
2021/12/09 12:11:26;;;;;;;9.43;1.53;;;4.70;99.90;;;;;;4979947;28;20454;-64
2021/12/09 12:14:02;;;;;;;2.47;0.93;;;4.60;99.90;;;;;;4997649;28;20452;-65
2021/12/09 12:25:02;;;;;;;4.10;1.00;;;4.70;99.90;;;;;;4987515;28;20569;-64
2021/12/09 12:27:38;;;;;;;3.87;1.30;;;4.80;99.90;;;;;;4991292;28;20454;-65
2021/12/09 12:35:55;;;;;;;1.93;1.00;;;5.00;99.90;;;;;;4992804;28;20505;-65
2021/12/09 12:41:01;;;;;;;2.40;1.37;;;4.90;99.90;;;;;;4994390;28;20486;-64
2021/12/09 12:43:38;;;;;;;14.33;1.40;;;5.00;99.90;;;;;;4994545;28;20490;-64
2021/12/09 12:49:00;;;;;;;2.63;0.97;;;5.30;99.90;;;;;;4988859;28;20508;-64
2021/12/09 12:51:47;;;;;;;11.13;1.43;;;5.20;99.90;;;;;;4989179;28;20441;-64
2021/12/09 12:54:21;;;;;;;8.03;1.10;;;4.90;99.90;;;;;;4991282;28;20442;-64
2021/12/09 12:56:57;;;;;;;7.83;1.20;;;4.60;99.90;;;;;;4992431;28;20442;-64
2021/12/09 12:59:38;;;;;;;3.97;1.23;;;4.70;99.90;;;;;;4993864;28;20454;-64
2021/12/09 13:03:01;;;;;;;3.50;1.80;;;4.60;99.90;;;;;;4991311;28;20470;-64
2021/12/09 13:05:47;;;;;;;4.50;1.47;;;4.50;99.90;;;;;;4991277;28;20546;-64
2021/12/09 13:08:40;;;;;;;3.23;1.13;;;4.40;99.90;;;;;;4983198;28;20470;-65
2021/12/09 13:16:47;;;;;;;2.23;1.20;;;4.20;99.90;;;;;;4982527;28;20454;-65
2021/12/09 13:19:29;;;;;;;4.50;1.23;;;4.40;99.90;;;;;;4991546;28;20529;-64
2021/12/09 13:22:01;;;;;;;4.70;1.87;;;4.50;99.90;;;;;;4993374;28;20470;-65
2021/12/09 13:33:25;;;;;;;2.13;1.00;;;4.50;99.90;;;;;;4990859;28;20437;-64
2021/12/09 13:39:12;;;;;;;3.23;1.03;;;4.40;99.90;;;;;;4987732;28;20470;-64
2021/12/09 13:49:44;;;;;;;11.23;0.70;;;4.30;99.90;;;;;;4986357;28;21262;-65
2021/12/09 13:55:05;;;;;;;3.17;1.30;;;3.90;99.90;;;;;;4988444;28;20823;-64
2021/12/09 13:57:53;;;;;;;4.20;1.43;;;3.80;99.90;;;;;;4985612;28;20438;-64
2021/12/09 14:00:24;;;;;;;3.20;1.33;;;3.70;99.90;;;;;;4989442;28;21789;-65
2021/12/09 14:02:55;;;;;;;9.47;1.37;;;3.70;99.90;;;;;;4990097;28;20699;-64
2021/12/09 14:05:22;;;;;;;7.93;1.43;;;3.70;99.90;;;;;;4986326;28;20455;-64
2021/12/09 14:07:57;;;;;;;3.30;1.20;;;3.60;99.90;;;;;;4986593;28;20493;-64
2021/12/09 14:10:28;;;;;;;3.90;1.23;;;3.60;99.90;;;;;;4987328;28;20534;-65